This is the latest recevied weather packets stored in our database for station/object LU5DTF-1. If no packets are shown the sender has not sent any weather packets the latest 10 day(s).
| Time | Temp. | Humidity | Pressure | Rain* | Wind** | Luminosity | Snow |
|---|---|---|---|---|---|---|---|
| 1778335497 | 10.56° C | 71% | 1010.3 hPa | 0 mm | - | - | - |
| 1778335197 | 10.56° C | 71% | 1010.3 hPa | 0 mm | - | - | - |
| 1778334897 | 10.56° C | 71% | 1010 hPa | 0 mm | - | - | - |
| 1778334597 | 10.56° C | 72% | 1010 hPa | 0 mm | - | - | - |
| 1778334297 | 11.11° C | 67% | 1009.8 hPa | 0 mm | - | - | - |
| 1778333997 | 11.11° C | 65% | 1009.5 hPa | 0 mm | - | - | - |
| 1778333700 | 11.11° C | 64% | 1009.6 hPa | 0 mm | - | - | - |
| 1778333397 | 11.11° C | 63% | 1009.4 hPa | 0 mm | - | - | - |
| 1778333097 | 11.11° C | 65% | 1009.2 hPa | 0 mm | - | - | - |
| 1778332797 | 11.11° C | 66% | 1009.4 hPa | 0 mm | - | - | - |
| 1778332497 | 10.56° C | 66% | 1009.2 hPa | 0 mm | - | - | - |
| 1778332197 | 10.56° C | 69% | 1009.2 hPa | 0 mm | - | - | - |
| 1778331897 | 10.56° C | 68% | 1009 hPa | 0 mm | - | - | - |
| 1778331598 | 10.56° C | 70% | 1009 hPa | 0 mm | - | - | - |
| 1778331298 | 10.56° C | 70% | 1008.9 hPa | 0.25 mm | - | - | - |
| 1778330997 | 10.56° C | 70% | 1009 hPa | 0.25 mm | - | - | - |
| 1778330697 | 10.56° C | 68% | 1008.8 hPa | 0.25 mm | - | - | - |
| 1778330397 | 10° C | 72% | 1008.8 hPa | 0.25 mm | - | - | - |
| 1778330097 | 10° C | 77% | 1008.7 hPa | 0.25 mm | - | - | - |
| 1778329497 | 10° C | 76% | 1008.6 hPa | 0.25 mm | - | - | - |
| 1778329197 | 10° C | 77% | 1008.4 hPa | 0.25 mm | - | - | - |
| 1778328897 | 9.44° C | 79% | 1008.2 hPa | 0.51 mm | - | - | - |
| 1778328597 | 8.33° C | 89% | 1008.1 hPa | 0.51 mm | - | - | - |
| 1778328297 | 8.33° C | 89% | 1008.1 hPa | 0.51 mm | - | - | - |
| 1778327997 | 8.89° C | 87% | 1008.2 hPa | 0.51 mm | - | - | - |
* Rain latest hour (hover to see other rain measurements)
** Current wind speed in m/s (hover to see current wind gust speed)